sensor_id;sensor_type;location;lat;lon;timestamp;P1;durP1;ratioP1;P2;durP2;ratioP2
18881;SDS011;9573;50.948;11.600;2024-01-11T00:02:23;106.90;;;31.03;;
18881;SDS011;9573;50.948;11.600;2024-01-11T00:04:51;98.73;;;29.03;;
18881;SDS011;9573;50.948;11.600;2024-01-11T00:07:19;97.03;;;28.30;;
18881;SDS011;9573;50.948;11.600;2024-01-11T00:09:46;82.13;;;26.73;;
18881;SDS011;9573;50.948;11.600;2024-01-11T00:12:13;86.53;;;27.60;;
18881;SDS011;9573;50.948;11.600;2024-01-11T00:14:42;92.50;;;28.57;;
18881;SDS011;9573;50.948;11.600;2024-01-11T00:17:09;100.33;;;29.30;;
18881;SDS011;9573;50.948;11.600;2024-01-11T00:19:39;82.93;;;26.50;;
18881;SDS011;9573;50.948;11.600;2024-01-11T00:22:08;82.47;;;25.97;;
18881;SDS011;9573;50.948;11.600;2024-01-11T00:24:35;83.43;;;26.27;;
18881;SDS011;9573;50.948;11.600;2024-01-11T00:27:02;76.23;;;24.23;;
18881;SDS011;9573;50.948;11.600;2024-01-11T00:29:33;91.90;;;27.10;;
18881;SDS011;9573;50.948;11.600;2024-01-11T00:32:02;84.73;;;26.03;;
18881;SDS011;9573;50.948;11.600;2024-01-11T00:34:32;92.63;;;27.27;;
18881;SDS011;9573;50.948;11.600;2024-01-11T00:36:58;97.33;;;27.37;;
18881;SDS011;9573;50.948;11.600;2024-01-11T00:39:26;84.50;;;27.13;;
18881;SDS011;9573;50.948;11.600;2024-01-11T00:41:54;95.47;;;29.63;;
18881;SDS011;9573;50.948;11.600;2024-01-11T00:44:21;89.57;;;28.63;;
18881;SDS011;9573;50.948;11.600;2024-01-11T00:46:49;93.97;;;27.83;;
18881;SDS011;9573;50.948;11.600;2024-01-11T00:49:16;96.30;;;28.33;;
18881;SDS011;9573;50.948;11.600;2024-01-11T00:51:44;93.37;;;27.87;;
18881;SDS011;9573;50.948;11.600;2024-01-11T00:54:12;93.03;;;27.10;;
18881;SDS011;9573;50.948;11.600;2024-01-11T00:56:41;82.97;;;26.40;;
18881;SDS011;9573;50.948;11.600;2024-01-11T00:59:08;80.70;;;27.17;;
18881;SDS011;9573;50.948;11.600;2024-01-11T01:01:35;93.00;;;28.23;;
18881;SDS011;9573;50.948;11.600;2024-01-11T01:04:02;97.33;;;28.47;;
18881;SDS011;9573;50.948;11.600;2024-01-11T01:06:32;107.83;;;29.97;;
18881;SDS011;9573;50.948;11.600;2024-01-11T01:09:00;100.33;;;26.43;;
18881;SDS011;9573;50.948;11.600;2024-01-11T01:11:27;93.17;;;26.17;;
18881;SDS011;9573;50.948;11.600;2024-01-11T01:13:56;83.40;;;26.27;;
18881;SDS011;9573;50.948;11.600;2024-01-11T01:16:23;82.53;;;23.90;;
18881;SDS011;9573;50.948;11.600;2024-01-11T01:18:50;84.57;;;24.60;;
18881;SDS011;9573;50.948;11.600;2024-01-11T01:21:18;79.07;;;25.43;;
18881;SDS011;9573;50.948;11.600;2024-01-11T01:23:45;94.03;;;27.37;;
18881;SDS011;9573;50.948;11.600;2024-01-11T01:26:12;95.30;;;28.23;;
18881;SDS011;9573;50.948;11.600;2024-01-11T01:28:39;99.57;;;28.43;;
18881;SDS011;9573;50.948;11.600;2024-01-11T01:31:08;100.77;;;28.93;;
18881;SDS011;9573;50.948;11.600;2024-01-11T01:33:36;85.67;;;26.93;;
18881;SDS011;9573;50.948;11.600;2024-01-11T01:36:03;102.07;;;27.47;;
18881;SDS011;9573;50.948;11.600;2024-01-11T01:38:34;100.37;;;27.77;;
18881;SDS011;9573;50.948;11.600;2024-01-11T01:41:01;91.67;;;27.10;;
18881;SDS011;9573;50.948;11.600;2024-01-11T01:43:28;91.50;;;25.60;;
18881;SDS011;9573;50.948;11.600;2024-01-11T01:45:56;86.80;;;26.13;;
18881;SDS011;9573;50.948;11.600;2024-01-11T01:48:25;84.47;;;24.20;;
18881;SDS011;9573;50.948;11.600;2024-01-11T01:50:54;86.83;;;27.10;;
18881;SDS011;9573;50.948;11.600;2024-01-11T01:53:22;85.80;;;25.97;;
18881;SDS011;9573;50.948;11.600;2024-01-11T01:55:50;87.33;;;23.67;;
18881;SDS011;9573;50.948;11.600;2024-01-11T01:58:19;108.20;;;26.60;;
18881;SDS011;9573;50.948;11.600;2024-01-11T02:00:47;97.97;;;28.67;;
18881;SDS011;9573;50.948;11.600;2024-01-11T02:03:17;96.57;;;29.30;;
18881;SDS011;9573;50.948;11.600;2024-01-11T02:05:46;93.73;;;27.33;;
18881;SDS011;9573;50.948;11.600;2024-01-11T02:08:15;102.53;;;28.63;;
18881;SDS011;9573;50.948;11.600;2024-01-11T02:10:44;98.90;;;30.57;;
18881;SDS011;9573;50.948;11.600;2024-01-11T02:13:12;99.87;;;29.60;;
18881;SDS011;9573;50.948;11.600;2024-01-11T02:15:39;105.13;;;31.20;;
18881;SDS011;9573;50.948;11.600;2024-01-11T02:18:06;107.93;;;30.13;;
18881;SDS011;9573;50.948;11.600;2024-01-11T02:20:33;102.27;;;29.10;;
18881;SDS011;9573;50.948;11.600;2024-01-11T02:23:03;114.80;;;30.57;;
18881;SDS011;9573;50.948;11.600;2024-01-11T02:25:36;107.60;;;31.47;;
18881;SDS011;9573;50.948;11.600;2024-01-11T02:28:03;104.73;;;31.40;;
18881;SDS011;9573;50.948;11.600;2024-01-11T02:30:31;108.70;;;29.40;;
18881;SDS011;9573;50.948;11.600;2024-01-11T02:32:58;98.17;;;25.93;;
18881;SDS011;9573;50.948;11.600;2024-01-11T02:35:26;95.37;;;27.53;;
18881;SDS011;9573;50.948;11.600;2024-01-11T02:37:53;95.73;;;26.90;;
18881;SDS011;9573;50.948;11.600;2024-01-11T02:40:21;92.50;;;25.90;;
18881;SDS011;9573;50.948;11.600;2024-01-11T02:42:50;72.50;;;21.87;;
18881;SDS011;9573;50.948;11.600;2024-01-11T02:45:17;81.83;;;25.20;;
18881;SDS011;9573;50.948;11.600;2024-01-11T02:47:45;87.83;;;26.67;;
18881;SDS011;9573;50.948;11.600;2024-01-11T02:50:12;81.23;;;24.30;;
18881;SDS011;9573;50.948;11.600;2024-01-11T02:52:39;100.50;;;29.63;;
18881;SDS011;9573;50.948;11.600;2024-01-11T02:55:07;82.43;;;25.67;;
18881;SDS011;9573;50.948;11.600;2024-01-11T02:57:35;77.07;;;21.70;;
18881;SDS011;9573;50.948;11.600;2024-01-11T03:00:04;72.70;;;24.10;;
18881;SDS011;9573;50.948;11.600;2024-01-11T03:02:32;74.77;;;25.33;;
18881;SDS011;9573;50.948;11.600;2024-01-11T03:04:59;95.37;;;30.33;;
18881;SDS011;9573;50.948;11.600;2024-01-11T03:07:26;81.63;;;24.60;;
18881;SDS011;9573;50.948;11.600;2024-01-11T03:09:55;91.40;;;23.50;;
18881;SDS011;9573;50.948;11.600;2024-01-11T03:12:22;72.17;;;23.37;;
18881;SDS011;9573;50.948;11.600;2024-01-11T03:14:51;80.30;;;25.60;;
18881;SDS011;9573;50.948;11.600;2024-01-11T03:17:19;85.37;;;25.87;;
18881;SDS011;9573;50.948;11.600;2024-01-11T03:19:46;96.23;;;26.23;;
18881;SDS011;9573;50.948;11.600;2024-01-11T03:22:14;83.10;;;23.20;;
18881;SDS011;9573;50.948;11.600;2024-01-11T03:24:41;96.27;;;28.23;;
18881;SDS011;9573;50.948;11.600;2024-01-11T03:27:08;85.23;;;24.47;;
18881;SDS011;9573;50.948;11.600;2024-01-11T03:29:35;83.20;;;25.00;;
18881;SDS011;9573;50.948;11.600;2024-01-11T03:32:02;80.93;;;24.77;;
18881;SDS011;9573;50.948;11.600;2024-01-11T03:34:31;92.40;;;25.83;;
18881;SDS011;9573;50.948;11.600;2024-01-11T03:36:58;99.53;;;30.27;;
18881;SDS011;9573;50.948;11.600;2024-01-11T03:39:26;96.40;;;27.13;;
18881;SDS011;9573;50.948;11.600;2024-01-11T03:41:53;80.50;;;23.57;;
18881;SDS011;9573;50.948;11.600;2024-01-11T03:44:20;95.20;;;27.03;;
18881;SDS011;9573;50.948;11.600;2024-01-11T03:46:49;100.47;;;27.67;;
18881;SDS011;9573;50.948;11.600;2024-01-11T03:49:16;91.23;;;23.60;;
18881;SDS011;9573;50.948;11.600;2024-01-11T03:51:45;83.03;;;25.17;;
18881;SDS011;9573;50.948;11.600;2024-01-11T03:54:12;80.37;;;26.13;;
18881;SDS011;9573;50.948;11.600;2024-01-11T03:56:39;71.90;;;22.33;;
18881;SDS011;9573;50.948;11.600;2024-01-11T03:59:06;83.30;;;22.67;;
18881;SDS011;9573;50.948;11.600;2024-01-11T04:01:37;68.03;;;19.63;;
18881;SDS011;9573;50.948;11.600;2024-01-11T04:04:06;68.93;;;21.10;;
18881;SDS011;9573;50.948;11.600;2024-01-11T04:06:33;80.40;;;24.23;;
18881;SDS011;9573;50.948;11.600;2024-01-11T04:09:01;71.13;;;23.63;;
18881;SDS011;9573;50.948;11.600;2024-01-11T04:11:29;74.27;;;21.17;;
18881;SDS011;9573;50.948;11.600;2024-01-11T04:13:56;80.70;;;23.60;;
18881;SDS011;9573;50.948;11.600;2024-01-11T04:16:23;76.87;;;23.60;;
18881;SDS011;9573;50.948;11.600;2024-01-11T04:18:51;72.03;;;22.50;;
18881;SDS011;9573;50.948;11.600;2024-01-11T04:21:21;80.63;;;25.30;;
18881;SDS011;9573;50.948;11.600;2024-01-11T04:23:49;79.60;;;24.73;;
18881;SDS011;9573;50.948;11.600;2024-01-11T04:26:18;83.67;;;24.87;;
18881;SDS011;9573;50.948;11.600;2024-01-11T04:28:45;73.63;;;22.70;;
18881;SDS011;9573;50.948;11.600;2024-01-11T04:31:13;62.97;;;19.60;;
18881;SDS011;9573;50.948;11.600;2024-01-11T04:33:42;90.67;;;24.43;;
18881;SDS011;9573;50.948;11.600;2024-01-11T04:36:09;85.83;;;26.97;;
18881;SDS011;9573;50.948;11.600;2024-01-11T04:38:37;80.13;;;26.00;;
18881;SDS011;9573;50.948;11.600;2024-01-11T04:41:07;66.00;;;21.00;;
18881;SDS011;9573;50.948;11.600;2024-01-11T04:43:37;71.53;;;19.53;;
18881;SDS011;9573;50.948;11.600;2024-01-11T04:46:12;66.53;;;20.07;;
18881;SDS011;9573;50.948;11.600;2024-01-11T04:48:41;64.83;;;22.10;;
18881;SDS011;9573;50.948;11.600;2024-01-11T04:51:08;67.37;;;22.80;;
18881;SDS011;9573;50.948;11.600;2024-01-11T04:53:36;77.20;;;24.27;;
18881;SDS011;9573;50.948;11.600;2024-01-11T04:56:06;91.43;;;24.77;;
18881;SDS011;9573;50.948;11.600;2024-01-11T04:58:34;80.93;;;23.10;;
18881;SDS011;9573;50.948;11.600;2024-01-11T05:01:03;75.30;;;21.80;;
18881;SDS011;9573;50.948;11.600;2024-01-11T05:03:31;82.20;;;22.37;;
18881;SDS011;9573;50.948;11.600;2024-01-11T05:05:58;81.20;;;23.87;;
18881;SDS011;9573;50.948;11.600;2024-01-11T05:08:25;89.43;;;25.70;;
18881;SDS011;9573;50.948;11.600;2024-01-11T05:10:52;76.93;;;21.87;;
18881;SDS011;9573;50.948;11.600;2024-01-11T05:13:20;74.87;;;22.63;;
18881;SDS011;9573;50.948;11.600;2024-01-11T05:15:48;81.73;;;26.20;;
18881;SDS011;9573;50.948;11.600;2024-01-11T05:18:16;88.60;;;26.53;;
18881;SDS011;9573;50.948;11.600;2024-01-11T05:20:44;100.63;;;28.77;;
18881;SDS011;9573;50.948;11.600;2024-01-11T05:23:11;71.60;;;22.73;;
18881;SDS011;9573;50.948;11.600;2024-01-11T05:25:38;87.03;;;25.47;;
18881;SDS011;9573;50.948;11.600;2024-01-11T05:28:05;86.63;;;26.67;;
18881;SDS011;9573;50.948;11.600;2024-01-11T05:30:32;82.67;;;24.97;;
18881;SDS011;9573;50.948;11.600;2024-01-11T05:33:00;100.17;;;27.80;;
18881;SDS011;9573;50.948;11.600;2024-01-11T05:35:28;74.00;;;23.23;;
18881;SDS011;9573;50.948;11.600;2024-01-11T05:37:55;78.30;;;24.10;;
18881;SDS011;9573;50.948;11.600;2024-01-11T05:40:22;94.60;;;23.97;;
18881;SDS011;9573;50.948;11.600;2024-01-11T05:42:49;79.17;;;21.10;;
18881;SDS011;9573;50.948;11.600;2024-01-11T05:45:17;53.97;;;15.97;;
18881;SDS011;9573;50.948;11.600;2024-01-11T05:47:44;60.70;;;18.87;;
18881;SDS011;9573;50.948;11.600;2024-01-11T05:50:11;58.80;;;17.60;;
18881;SDS011;9573;50.948;11.600;2024-01-11T05:52:39;74.27;;;22.80;;
18881;SDS011;9573;50.948;11.600;2024-01-11T05:55:07;70.07;;;21.97;;
18881;SDS011;9573;50.948;11.600;2024-01-11T05:57:34;87.13;;;24.43;;
18881;SDS011;9573;50.948;11.600;2024-01-11T06:00:02;65.97;;;20.07;;
18881;SDS011;9573;50.948;11.600;2024-01-11T06:02:31;70.70;;;22.50;;
18881;SDS011;9573;50.948;11.600;2024-01-11T06:04:58;94.33;;;24.43;;
18881;SDS011;9573;50.948;11.600;2024-01-11T06:07:25;67.47;;;20.47;;
18881;SDS011;9573;50.948;11.600;2024-01-11T06:09:53;69.63;;;20.23;;
18881;SDS011;9573;50.948;11.600;2024-01-11T06:12:20;71.20;;;17.30;;
18881;SDS011;9573;50.948;11.600;2024-01-11T06:14:48;106.10;;;28.57;;
18881;SDS011;9573;50.948;11.600;2024-01-11T06:17:15;75.13;;;23.27;;
18881;SDS011;9573;50.948;11.600;2024-01-11T06:19:42;87.73;;;25.27;;
18881;SDS011;9573;50.948;11.600;2024-01-11T06:22:09;82.90;;;24.30;;
18881;SDS011;9573;50.948;11.600;2024-01-11T06:24:36;79.03;;;23.13;;
18881;SDS011;9573;50.948;11.600;2024-01-11T06:27:05;88.43;;;25.83;;
18881;SDS011;9573;50.948;11.600;2024-01-11T06:29:32;79.27;;;23.53;;
18881;SDS011;9573;50.948;11.600;2024-01-11T06:31:59;74.50;;;24.33;;
18881;SDS011;9573;50.948;11.600;2024-01-11T06:34:27;76.77;;;23.67;;
18881;SDS011;9573;50.948;11.600;2024-01-11T06:36:54;89.43;;;26.57;;
18881;SDS011;9573;50.948;11.600;2024-01-11T06:39:21;83.70;;;27.63;;
18881;SDS011;9573;50.948;11.600;2024-01-11T06:41:49;63.43;;;19.77;;
18881;SDS011;9573;50.948;11.600;2024-01-11T06:44:17;77.87;;;21.73;;
18881;SDS011;9573;50.948;11.600;2024-01-11T06:46:44;68.83;;;18.67;;
18881;SDS011;9573;50.948;11.600;2024-01-11T06:49:11;88.70;;;27.63;;
18881;SDS011;9573;50.948;11.600;2024-01-11T06:51:39;78.77;;;23.77;;
18881;SDS011;9573;50.948;11.600;2024-01-11T06:54:06;77.87;;;21.47;;
18881;SDS011;9573;50.948;11.600;2024-01-11T06:56:34;67.37;;;21.97;;
18881;SDS011;9573;50.948;11.600;2024-01-11T06:59:02;94.73;;;31.50;;
18881;SDS011;9573;50.948;11.600;2024-01-11T07:01:30;79.47;;;23.93;;
18881;SDS011;9573;50.948;11.600;2024-01-11T07:03:58;87.60;;;24.83;;
18881;SDS011;9573;50.948;11.600;2024-01-11T07:06:25;82.77;;;26.90;;
18881;SDS011;9573;50.948;11.600;2024-01-11T07:08:52;68.27;;;22.73;;
18881;SDS011;9573;50.948;11.600;2024-01-11T07:11:20;75.47;;;23.03;;
18881;SDS011;9573;50.948;11.600;2024-01-11T07:13:47;81.23;;;24.03;;
18881;SDS011;9573;50.948;11.600;2024-01-11T07:16:14;86.90;;;26.03;;
18881;SDS011;9573;50.948;11.600;2024-01-11T07:18:42;82.03;;;26.77;;
18881;SDS011;9573;50.948;11.600;2024-01-11T07:21:10;101.70;;;28.60;;
18881;SDS011;9573;50.948;11.600;2024-01-11T07:23:37;18.23;;;5.53;;
18881;SDS011;9573;50.948;11.600;2024-01-11T07:26:04;74.73;;;21.33;;
18881;SDS011;9573;50.948;11.600;2024-01-11T07:28:31;91.03;;;26.60;;
18881;SDS011;9573;50.948;11.600;2024-01-11T07:30:58;40.17;;;14.07;;
18881;SDS011;9573;50.948;11.600;2024-01-11T07:33:26;61.60;;;20.17;;
18881;SDS011;9573;50.948;11.600;2024-01-11T07:35:54;53.43;;;15.77;;
18881;SDS011;9573;50.948;11.600;2024-01-11T07:38:21;71.23;;;19.53;;
18881;SDS011;9573;50.948;11.600;2024-01-11T07:40:49;49.40;;;15.13;;
18881;SDS011;9573;50.948;11.600;2024-01-11T07:43:16;75.33;;;20.33;;
18881;SDS011;9573;50.948;11.600;2024-01-11T07:45:43;39.27;;;11.17;;
18881;SDS011;9573;50.948;11.600;2024-01-11T07:48:10;45.40;;;14.03;;
18881;SDS011;9573;50.948;11.600;2024-01-11T07:50:38;43.87;;;14.60;;
18881;SDS011;9573;50.948;11.600;2024-01-11T07:53:06;26.17;;;9.27;;
18881;SDS011;9573;50.948;11.600;2024-01-11T07:55:34;38.30;;;12.67;;
18881;SDS011;9573;50.948;11.600;2024-01-11T07:58:02;48.70;;;15.20;;
18881;SDS011;9573;50.948;11.600;2024-01-11T08:00:30;62.77;;;17.30;;
18881;SDS011;9573;50.948;11.600;2024-01-11T08:02:57;44.77;;;12.67;;
18881;SDS011;9573;50.948;11.600;2024-01-11T08:05:24;63.63;;;19.63;;
18881;SDS011;9573;50.948;11.600;2024-01-11T08:07:52;78.07;;;21.57;;
18881;SDS011;9573;50.948;11.600;2024-01-11T08:10:21;65.90;;;20.67;;
18881;SDS011;9573;50.948;11.600;2024-01-11T08:12:48;75.10;;;22.27;;
18881;SDS011;9573;50.948;11.600;2024-01-11T08:15:15;65.10;;;20.93;;
18881;SDS011;9573;50.948;11.600;2024-01-11T08:17:43;86.10;;;24.43;;
18881;SDS011;9573;50.948;11.600;2024-01-11T08:20:11;56.67;;;15.10;;
18881;SDS011;9573;50.948;11.600;2024-01-11T08:22:38;56.73;;;14.37;;
18881;SDS011;9573;50.948;11.600;2024-01-11T08:25:06;58.83;;;16.50;;
18881;SDS011;9573;50.948;11.600;2024-01-11T08:27:36;39.43;;;12.00;;
18881;SDS011;9573;50.948;11.600;2024-01-11T08:30:03;31.83;;;10.80;;
18881;SDS011;9573;50.948;11.600;2024-01-11T08:32:33;43.90;;;12.20;;
18881;SDS011;9573;50.948;11.600;2024-01-11T08:35:04;59.00;;;17.83;;
18881;SDS011;9573;50.948;11.600;2024-01-11T08:37:33;40.80;;;13.33;;
18881;SDS011;9573;50.948;11.600;2024-01-11T08:40:00;69.10;;;21.20;;
18881;SDS011;9573;50.948;11.600;2024-01-11T08:42:29;79.83;;;23.17;;
18881;SDS011;9573;50.948;11.600;2024-01-11T08:44:58;75.70;;;22.23;;
18881;SDS011;9573;50.948;11.600;2024-01-11T08:47:31;84.13;;;23.20;;
18881;SDS011;9573;50.948;11.600;2024-01-11T08:49:59;83.07;;;22.80;;
18881;SDS011;9573;50.948;11.600;2024-01-11T08:52:30;98.40;;;26.87;;
18881;SDS011;9573;50.948;11.600;2024-01-11T08:54:58;67.03;;;19.97;;
18881;SDS011;9573;50.948;11.600;2024-01-11T08:57:25;64.47;;;19.30;;
18881;SDS011;9573;50.948;11.600;2024-01-11T08:59:52;87.63;;;31.07;;
18881;SDS011;9573;50.948;11.600;2024-01-11T09:02:21;89.73;;;31.30;;
18881;SDS011;9573;50.948;11.600;2024-01-11T09:04:48;98.00;;;33.87;;
18881;SDS011;9573;50.948;11.600;2024-01-11T09:07:15;89.20;;;29.67;;
18881;SDS011;9573;50.948;11.600;2024-01-11T09:09:42;87.83;;;29.67;;
18881;SDS011;9573;50.948;11.600;2024-01-11T09:12:10;86.83;;;27.17;;
18881;SDS011;9573;50.948;11.600;2024-01-11T09:14:38;93.10;;;30.60;;
18881;SDS011;9573;50.948;11.600;2024-01-11T09:17:05;89.13;;;30.73;;
18881;SDS011;9573;50.948;11.600;2024-01-11T09:19:34;81.87;;;26.33;;
18881;SDS011;9573;50.948;11.600;2024-01-11T09:22:05;90.10;;;30.00;;
18881;SDS011;9573;50.948;11.600;2024-01-11T09:24:34;82.17;;;29.97;;
18881;SDS011;9573;50.948;11.600;2024-01-11T09:27:02;89.20;;;32.53;;
18881;SDS011;9573;50.948;11.600;2024-01-11T09:29:30;88.13;;;30.83;;
18881;SDS011;9573;50.948;11.600;2024-01-11T09:31:58;88.23;;;30.27;;
18881;SDS011;9573;50.948;11.600;2024-01-11T09:34:26;94.37;;;33.83;;
18881;SDS011;9573;50.948;11.600;2024-01-11T09:36:54;76.40;;;26.77;;
18881;SDS011;9573;50.948;11.600;2024-01-11T09:39:24;93.23;;;32.83;;
18881;SDS011;9573;50.948;11.600;2024-01-11T09:41:51;85.40;;;27.27;;
18881;SDS011;9573;50.948;11.600;2024-01-11T09:44:25;87.40;;;31.47;;
18881;SDS011;9573;50.948;11.600;2024-01-11T09:46:54;90.07;;;31.30;;
18881;SDS011;9573;50.948;11.600;2024-01-11T09:49:22;81.80;;;28.70;;
18881;SDS011;9573;50.948;11.600;2024-01-11T09:51:49;95.13;;;32.27;;
18881;SDS011;9573;50.948;11.600;2024-01-11T09:54:22;90.97;;;31.47;;
18881;SDS011;9573;50.948;11.600;2024-01-11T09:56:51;89.47;;;30.57;;
18881;SDS011;9573;50.948;11.600;2024-01-11T09:59:21;89.17;;;31.60;;
18881;SDS011;9573;50.948;11.600;2024-01-11T10:01:50;89.73;;;30.80;;
18881;SDS011;9573;50.948;11.600;2024-01-11T10:04:18;87.50;;;29.20;;
18881;SDS011;9573;50.948;11.600;2024-01-11T10:06:45;95.03;;;31.27;;
18881;SDS011;9573;50.948;11.600;2024-01-11T10:09:13;82.43;;;29.47;;
18881;SDS011;9573;50.948;11.600;2024-01-11T10:11:43;80.97;;;26.97;;
18881;SDS011;9573;50.948;11.600;2024-01-11T10:14:11;87.50;;;29.13;;
18881;SDS011;9573;50.948;11.600;2024-01-11T10:16:39;95.17;;;30.90;;
18881;SDS011;9573;50.948;11.600;2024-01-11T10:19:08;91.50;;;31.37;;
18881;SDS011;9573;50.948;11.600;2024-01-11T10:21:38;86.60;;;29.17;;
18881;SDS011;9573;50.948;11.600;2024-01-11T10:24:06;89.57;;;30.03;;
18881;SDS011;9573;50.948;11.600;2024-01-11T10:26:33;82.93;;;31.03;;
18881;SDS011;9573;50.948;11.600;2024-01-11T10:29:03;88.50;;;32.43;;
18881;SDS011;9573;50.948;11.600;2024-01-11T10:31:35;85.17;;;33.47;;
18881;SDS011;9573;50.948;11.600;2024-01-11T10:34:03;97.13;;;35.60;;
18881;SDS011;9573;50.948;11.600;2024-01-11T10:36:31;93.20;;;33.17;;
18881;SDS011;9573;50.948;11.600;2024-01-11T10:38:59;94.70;;;32.50;;
18881;SDS011;9573;50.948;11.600;2024-01-11T10:41:32;96.90;;;35.80;;
18881;SDS011;9573;50.948;11.600;2024-01-11T10:44:06;89.70;;;34.73;;
18881;SDS011;9573;50.948;11.600;2024-01-11T10:46:44;89.17;;;34.70;;
18881;SDS011;9573;50.948;11.600;2024-01-11T10:49:13;89.43;;;36.57;;
18881;SDS011;9573;50.948;11.600;2024-01-11T10:51:45;82.17;;;29.50;;
18881;SDS011;9573;50.948;11.600;2024-01-11T10:54:20;89.23;;;34.73;;
18881;SDS011;9573;50.948;11.600;2024-01-11T10:56:48;92.07;;;36.53;;
18881;SDS011;9573;50.948;11.600;2024-01-11T10:59:17;91.93;;;36.17;;
18881;SDS011;9573;50.948;11.600;2024-01-11T11:01:50;89.47;;;36.33;;
18881;SDS011;9573;50.948;11.600;2024-01-11T11:04:19;89.67;;;34.63;;
18881;SDS011;9573;50.948;11.600;2024-01-11T11:06:48;87.50;;;35.40;;
18881;SDS011;9573;50.948;11.600;2024-01-11T11:09:17;83.80;;;35.93;;
18881;SDS011;9573;50.948;11.600;2024-01-11T11:11:46;86.47;;;37.07;;
18881;SDS011;9573;50.948;11.600;2024-01-11T11:14:13;83.47;;;36.47;;
18881;SDS011;9573;50.948;11.600;2024-01-11T11:16:44;88.63;;;38.30;;
18881;SDS011;9573;50.948;11.600;2024-01-11T11:19:11;83.60;;;36.07;;
18881;SDS011;9573;50.948;11.600;2024-01-11T11:21:41;94.20;;;38.07;;
18881;SDS011;9573;50.948;11.600;2024-01-11T11:24:09;94.47;;;36.13;;
18881;SDS011;9573;50.948;11.600;2024-01-11T11:26:37;86.23;;;36.53;;
18881;SDS011;9573;50.948;11.600;2024-01-11T11:29:04;86.53;;;36.03;;
18881;SDS011;9573;50.948;11.600;2024-01-11T11:31:34;98.33;;;38.23;;
18881;SDS011;9573;50.948;11.600;2024-01-11T11:34:04;85.40;;;36.87;;
18881;SDS011;9573;50.948;11.600;2024-01-11T11:36:32;83.00;;;35.53;;
18881;SDS011;9573;50.948;11.600;2024-01-11T11:39:01;79.50;;;32.77;;
18881;SDS011;9573;50.948;11.600;2024-01-11T11:41:30;88.00;;;37.37;;
18881;SDS011;9573;50.948;11.600;2024-01-11T11:44:00;83.03;;;36.20;;
18881;SDS011;9573;50.948;11.600;2024-01-11T11:46:28;97.33;;;37.43;;
18881;SDS011;9573;50.948;11.600;2024-01-11T11:48:56;87.97;;;36.50;;
18881;SDS011;9573;50.948;11.600;2024-01-11T11:51:25;85.63;;;36.67;;
18881;SDS011;9573;50.948;11.600;2024-01-11T11:53:53;84.27;;;36.47;;
18881;SDS011;9573;50.948;11.600;2024-01-11T11:56:21;78.03;;;33.03;;
18881;SDS011;9573;50.948;11.600;2024-01-11T11:58:49;86.20;;;36.30;;
18881;SDS011;9573;50.948;11.600;2024-01-11T12:01:17;88.23;;;37.33;;
18881;SDS011;9573;50.948;11.600;2024-01-11T12:03:45;91.43;;;38.37;;
18881;SDS011;9573;50.948;11.600;2024-01-11T12:06:15;91.10;;;36.67;;
18881;SDS011;9573;50.948;11.600;2024-01-11T12:08:46;87.90;;;36.97;;
18881;SDS011;9573;50.948;11.600;2024-01-11T12:11:14;90.23;;;34.77;;
18881;SDS011;9573;50.948;11.600;2024-01-11T12:13:44;87.47;;;35.57;;
18881;SDS011;9573;50.948;11.600;2024-01-11T12:16:11;90.80;;;35.93;;
18881;SDS011;9573;50.948;11.600;2024-01-11T12:18:38;85.23;;;33.43;;
18881;SDS011;9573;50.948;11.600;2024-01-11T12:21:06;89.10;;;35.03;;
18881;SDS011;9573;50.948;11.600;2024-01-11T12:23:34;83.13;;;34.17;;
18881;SDS011;9573;50.948;11.600;2024-01-11T12:26:04;88.37;;;34.53;;
18881;SDS011;9573;50.948;11.600;2024-01-11T12:28:37;83.77;;;35.23;;
18881;SDS011;9573;50.948;11.600;2024-01-11T12:31:06;90.43;;;35.43;;
18881;SDS011;9573;50.948;11.600;2024-01-11T12:33:33;83.97;;;35.10;;
18881;SDS011;9573;50.948;11.600;2024-01-11T12:36:03;84.87;;;36.23;;
18881;SDS011;9573;50.948;11.600;2024-01-11T12:38:33;81.13;;;33.10;;
18881;SDS011;9573;50.948;11.600;2024-01-11T12:41:01;86.97;;;35.13;;
18881;SDS011;9573;50.948;11.600;2024-01-11T12:43:30;81.10;;;35.20;;
18881;SDS011;9573;50.948;11.600;2024-01-11T12:45:59;82.57;;;36.67;;
18881;SDS011;9573;50.948;11.600;2024-01-11T12:48:27;100.80;;;38.60;;
18881;SDS011;9573;50.948;11.600;2024-01-11T12:50:55;97.23;;;37.63;;
18881;SDS011;9573;50.948;11.600;2024-01-11T12:53:22;86.23;;;35.37;;
18881;SDS011;9573;50.948;11.600;2024-01-11T12:56:01;83.70;;;34.93;;
18881;SDS011;9573;50.948;11.600;2024-01-11T12:58:34;89.97;;;36.20;;
18881;SDS011;9573;50.948;11.600;2024-01-11T13:01:02;100.17;;;38.07;;
18881;SDS011;9573;50.948;11.600;2024-01-11T13:03:32;110.40;;;44.63;;
18881;SDS011;9573;50.948;11.600;2024-01-11T13:05:59;113.33;;;44.70;;
18881;SDS011;9573;50.948;11.600;2024-01-11T13:08:29;92.97;;;39.67;;
18881;SDS011;9573;50.948;11.600;2024-01-11T13:10:57;89.87;;;36.03;;
18881;SDS011;9573;50.948;11.600;2024-01-11T13:13:24;93.37;;;37.97;;
18881;SDS011;9573;50.948;11.600;2024-01-11T13:15:54;84.63;;;37.00;;
18881;SDS011;9573;50.948;11.600;2024-01-11T13:18:21;97.67;;;36.10;;
18881;SDS011;9573;50.948;11.600;2024-01-11T13:20:49;83.70;;;35.00;;
18881;SDS011;9573;50.948;11.600;2024-01-11T13:23:16;83.40;;;35.17;;
18881;SDS011;9573;50.948;11.600;2024-01-11T13:25:46;80.57;;;33.37;;
18881;SDS011;9573;50.948;11.600;2024-01-11T13:28:15;83.20;;;32.47;;
18881;SDS011;9573;50.948;11.600;2024-01-11T13:30:44;84.50;;;34.20;;
18881;SDS011;9573;50.948;11.600;2024-01-11T13:33:15;83.17;;;33.27;;
18881;SDS011;9573;50.948;11.600;2024-01-11T13:35:43;80.97;;;32.90;;
18881;SDS011;9573;50.948;11.600;2024-01-11T13:38:10;90.87;;;33.93;;
18881;SDS011;9573;50.948;11.600;2024-01-11T13:40:37;89.30;;;32.17;;
18881;SDS011;9573;50.948;11.600;2024-01-11T13:43:05;85.57;;;30.80;;
18881;SDS011;9573;50.948;11.600;2024-01-11T13:45:32;87.77;;;32.03;;
18881;SDS011;9573;50.948;11.600;2024-01-11T13:48:01;86.40;;;33.83;;
18881;SDS011;9573;50.948;11.600;2024-01-11T13:50:31;89.20;;;34.40;;
18881;SDS011;9573;50.948;11.600;2024-01-11T13:52:59;101.43;;;35.07;;
18881;SDS011;9573;50.948;11.600;2024-01-11T13:55:27;103.17;;;37.40;;
18881;SDS011;9573;50.948;11.600;2024-01-11T13:58:02;93.37;;;32.63;;
18881;SDS011;9573;50.948;11.600;2024-01-11T14:00:32;94.10;;;33.63;;
18881;SDS011;9573;50.948;11.600;2024-01-11T14:02:59;101.67;;;35.03;;
18881;SDS011;9573;50.948;11.600;2024-01-11T14:05:26;92.87;;;33.20;;
18881;SDS011;9573;50.948;11.600;2024-01-11T14:07:55;98.07;;;34.73;;
18881;SDS011;9573;50.948;11.600;2024-01-11T14:10:24;86.70;;;35.30;;
18881;SDS011;9573;50.948;11.600;2024-01-11T14:12:51;94.43;;;35.33;;
18881;SDS011;9573;50.948;11.600;2024-01-11T14:15:19;95.73;;;33.63;;
18881;SDS011;9573;50.948;11.600;2024-01-11T14:17:46;104.60;;;35.93;;
18881;SDS011;9573;50.948;11.600;2024-01-11T14:20:14;99.77;;;34.20;;
18881;SDS011;9573;50.948;11.600;2024-01-11T14:22:41;96.07;;;33.80;;
18881;SDS011;9573;50.948;11.600;2024-01-11T14:25:13;100.40;;;35.23;;
18881;SDS011;9573;50.948;11.600;2024-01-11T14:27:41;97.67;;;33.87;;